SBCR/CMG METAR and TAF weather

Enter ICAO airport designator
Station Type Date Time Source
SBCR METAR 2019/08/23 21:00 UTC NOAA

SBCR 232100Z 34003KT 9000 NSC 30/17 Q1015


Station Type Date Time Source
SBCR Decoded METAR 2019/08/23 21:00 UTC NOAA

Station name not available
Aug 23, 2019 - 05:00 PM EDT / 2019.08.23 2100 UTC
Wind: from the NNW (340 degrees) at 3 MPH (3 KT):0
Visibility: 5 mile(s):0
Temperature: 86 F (30 C)
Dew Point: 62 F (17 C)
Relative Humidity: 45%
Pressure (altimeter): 29.97 in. Hg (1015 hPa)
ob: SBCR 232100Z 34003KT 9000 NSC 30/17 Q1015
cycle: 21

Station Type Date Time Source
SBCR TAF 2019/08/24 06:33 UTC NOAA

TAF TAF SBCR 240300Z 2406/2506 25003KT 8000 NSC TN20/2409Z TX32/2418Z
BECMG 2410/2412 07008KT
BECMG 2420/2422 12007KT
RMK PCX

Example: see airport list